createdAt,value
2023-03-06T00:04:12.465Z,17
2023-03-06T00:09:12.961Z,19
2023-03-06T00:14:12.989Z,19
2023-03-06T00:19:12.464Z,18
2023-03-06T00:24:13.005Z,16
2023-03-06T00:29:12.484Z,18
2023-03-06T00:34:13.012Z,18
2023-03-06T00:39:12.505Z,15
2023-03-06T00:44:13.028Z,18
2023-03-06T00:49:13.012Z,18
2023-03-06T00:54:13.143Z,17
2023-03-06T00:59:12.542Z,16
2023-03-06T01:04:13.072Z,19
2023-03-06T01:09:13.051Z,19
2023-03-06T01:14:12.546Z,16
2023-03-06T01:19:12.558Z,16
2023-03-06T01:24:12.597Z,17
2023-03-06T01:29:13.079Z,17
2023-03-06T01:34:12.581Z,18
2023-03-06T01:39:12.622Z,16
2023-03-06T01:44:12.627Z,18
2023-03-06T01:49:13.122Z,19
2023-03-06T01:54:12.633Z,17
2023-03-06T01:59:12.646Z,16
2023-03-06T02:04:13.188Z,19
2023-03-06T02:09:12.681Z,18
2023-03-06T02:14:12.653Z,16
2023-03-06T02:19:12.674Z,17
2023-03-06T02:24:12.703Z,20
2023-03-06T02:29:13.309Z,19
2023-03-06T02:34:12.693Z,16
2023-03-06T02:39:12.712Z,19
2023-03-06T02:44:13.257Z,22
2023-03-06T02:49:12.720Z,19
2023-03-06T02:54:12.746Z,19
2023-03-06T02:59:13.245Z,21
2023-03-06T03:04:12.870Z,22
2023-03-06T03:09:13.272Z,18
2023-03-06T03:14:13.262Z,16
2023-03-06T03:19:13.285Z,17
2023-03-06T03:24:13.311Z,17
2023-03-06T03:29:12.784Z,19
2023-03-06T03:34:13.294Z,16
2023-03-06T03:39:13.308Z,16
2023-03-06T03:44:13.345Z,17
2023-03-06T03:49:13.328Z,15
2023-03-06T03:54:12.843Z,18
2023-03-06T03:59:12.845Z,19
2023-03-06T04:19:13.715Z,19
2023-03-06T04:24:12.883Z,17
2023-03-06T04:29:13.408Z,19
2023-03-06T04:34:12.913Z,16
2023-03-06T04:39:13.452Z,17
2023-03-06T04:44:13.447Z,16
2023-03-06T04:49:12.956Z,17
2023-03-06T04:54:12.944Z,17
2023-03-06T04:59:12.966Z,17
2023-03-06T05:04:13.065Z,19
2023-03-06T05:09:13.469Z,17
2023-03-06T05:14:12.965Z,17
2023-03-06T05:19:13.013Z,19
2023-03-06T05:24:12.981Z,17
2023-03-06T05:29:12.990Z,19
2023-03-06T05:34:12.998Z,20
2023-03-06T05:39:13.557Z,19
2023-03-06T05:44:13.534Z,19
2023-03-06T05:49:13.030Z,19
2023-03-06T05:54:13.690Z,19
2023-03-06T05:59:13.069Z,21
2023-03-06T06:04:13.552Z,19
2023-03-06T06:09:13.938Z,22
2023-03-06T06:14:13.074Z,21
2023-03-06T06:29:14.019Z,21
2023-03-06T06:34:13.623Z,25
2023-03-06T06:39:13.107Z,25
2023-03-06T06:44:13.653Z,24
2023-03-06T06:49:13.163Z,24
2023-03-06T06:54:13.663Z,26
2023-03-06T06:59:16.843Z,26
2023-03-06T07:04:13.770Z,28
2023-03-06T07:09:13.743Z,31
2023-03-06T07:14:13.179Z,29
2023-03-06T07:34:14.056Z,29
2023-03-06T07:39:14.373Z,32
2023-03-06T07:44:13.244Z,32
2023-03-06T07:49:13.248Z,32
2023-03-06T07:54:13.278Z,34
2023-03-06T07:59:13.258Z,29
2023-03-06T08:04:13.305Z,29
2023-03-06T08:19:14.126Z,29
2023-03-06T08:24:13.308Z,31
2023-03-06T08:29:13.542Z,30
2023-03-06T08:34:13.825Z,38
2023-03-06T08:39:13.418Z,40
2023-03-06T08:44:13.831Z,31
2023-03-06T08:49:13.354Z,31
2023-03-06T08:54:13.351Z,37
2023-03-06T08:59:13.489Z,34
2023-03-06T09:04:13.367Z,40
2023-03-06T09:09:13.370Z,30
2023-03-06T09:14:13.382Z,35
2023-03-06T09:19:18.837Z,37
2023-03-06T09:24:13.908Z,38
2023-03-06T09:29:13.434Z,27
2023-03-06T09:34:13.428Z,28
2023-03-06T09:39:13.962Z,25
2023-03-06T09:44:13.435Z,32
2023-03-06T09:49:13.445Z,29
2023-03-06T09:54:13.455Z,28
2023-03-06T09:59:13.503Z,28
2023-03-06T10:04:14.089Z,31
2023-03-06T10:09:13.479Z,30
2023-03-06T10:14:13.557Z,32
2023-03-06T10:19:13.516Z,33
2023-03-06T10:24:13.512Z,28
2023-03-06T10:29:13.535Z,29
2023-03-06T10:34:13.551Z,27
2023-03-06T10:39:13.598Z,27
2023-03-06T10:44:14.052Z,27
2023-03-06T10:49:13.548Z,26
2023-03-06T10:54:13.576Z,23
2023-03-06T10:59:13.750Z,23
2023-03-06T11:04:13.613Z,24
2023-03-06T11:09:13.583Z,22
2023-03-06T11:14:13.593Z,18
2023-03-06T11:19:13.632Z,16
2023-03-06T11:24:13.624Z,15
2023-03-06T11:29:13.659Z,14
2023-03-06T11:49:14.495Z,14
2023-03-06T11:54:14.264Z,13
2023-03-06T11:59:13.680Z,14
2023-03-06T12:04:13.687Z,11
2023-03-06T12:19:14.563Z,11
2023-03-06T12:24:13.712Z,11
2023-03-06T12:29:13.870Z,19
2023-03-06T12:34:13.741Z,25
2023-03-06T12:39:13.777Z,26
2023-03-06T12:44:13.746Z,25
2023-03-06T12:49:20.233Z,23
2023-03-06T12:54:13.780Z,20
2023-03-06T12:59:13.822Z,12
2023-03-06T13:04:14.310Z,25
2023-03-06T13:09:13.801Z,25
2023-03-06T13:14:14.607Z,11
2023-03-06T13:19:14.375Z,17
2023-03-06T13:24:13.835Z,25
2023-03-06T13:29:13.841Z,10
2023-03-06T13:34:13.856Z,14
2023-03-06T13:39:13.892Z,24
2023-03-06T13:44:14.384Z,11
2023-03-06T13:49:13.881Z,20
2023-03-06T13:54:13.952Z,18
2023-03-06T13:59:14.425Z,27
2023-03-06T14:04:14.521Z,30
2023-03-06T14:09:13.906Z,24
2023-03-06T14:14:13.919Z,15
2023-03-06T14:19:14.467Z,26
2023-03-06T14:24:13.930Z,24
2023-03-06T14:29:13.937Z,26
2023-03-06T14:34:13.948Z,29
2023-03-06T14:39:13.987Z,35
2023-03-06T14:44:13.965Z,9
2023-03-06T14:49:14.014Z,9
2023-03-06T14:54:14.689Z,9
2023-03-06T14:59:14.074Z,10
2023-03-06T15:04:14.015Z,12
2023-03-06T15:09:14.011Z,11
2023-03-06T15:14:14.030Z,13
2023-03-06T15:19:14.643Z,22
2023-03-06T15:24:14.042Z,25
2023-03-06T15:29:14.558Z,46
2023-03-06T15:34:14.072Z,28
2023-03-06T15:39:14.116Z,39
2023-03-06T15:44:14.112Z,11
2023-03-06T15:49:14.099Z,30
2023-03-06T15:54:14.109Z,30
2023-03-06T15:59:14.649Z,26
2023-03-06T16:04:14.621Z,26
2023-03-06T16:09:14.120Z,33
2023-03-06T16:14:14.665Z,29
2023-03-06T16:19:25.160Z,38
2023-03-06T16:24:14.170Z,13
2023-03-06T16:29:14.153Z,28
2023-03-06T16:34:14.171Z,26
2023-03-06T16:39:14.704Z,31
2023-03-06T16:44:14.185Z,30
2023-03-06T16:49:14.185Z,26
2023-03-06T16:54:14.234Z,28
2023-03-06T16:59:14.737Z,24
2023-03-06T17:04:14.230Z,25
2023-03-06T17:24:15.107Z,25
2023-03-06T17:29:14.276Z,26
2023-03-06T17:34:14.282Z,13
2023-03-06T17:39:14.808Z,12
2023-03-06T17:44:14.834Z,12
2023-03-06T17:49:14.301Z,13
2023-03-06T17:54:14.940Z,14
2023-03-06T17:59:15.005Z,16
2023-03-06T18:04:14.881Z,22
2023-03-06T18:09:14.333Z,18
2023-03-06T18:14:14.349Z,23
2023-03-06T18:19:14.856Z,26
2023-03-06T18:24:14.392Z,24
2023-03-06T18:29:14.368Z,20
2023-03-06T18:34:14.380Z,18
2023-03-06T18:39:14.406Z,13
2023-03-06T18:44:14.476Z,12
2023-03-06T19:04:15.325Z,12
2023-03-06T19:09:14.476Z,14
2023-03-06T19:14:14.464Z,14
2023-03-06T19:19:14.471Z,12
2023-03-06T19:24:14.508Z,13
2023-03-06T19:44:15.403Z,13
2023-03-06T19:49:14.542Z,14
2023-03-06T19:54:15.156Z,14
2023-03-06T19:59:14.541Z,20
2023-03-06T20:04:14.607Z,12
2023-03-06T20:09:14.559Z,14
2023-03-06T20:24:15.511Z,14
2023-03-06T20:29:14.745Z,14
2023-03-06T20:34:15.466Z,12
2023-03-06T20:39:14.605Z,13
2023-03-06T20:44:14.632Z,14
2023-03-06T20:49:14.625Z,13
2023-03-06T20:54:14.632Z,13
2023-03-06T20:59:14.651Z,11
2023-03-06T21:04:14.691Z,14
2023-03-06T21:09:15.158Z,14
2023-03-06T21:14:14.691Z,13
2023-03-06T21:19:14.674Z,13
2023-03-06T21:24:14.714Z,11
2023-03-06T21:29:14.696Z,12
2023-03-06T21:34:14.700Z,15
2023-03-06T21:39:14.715Z,12
2023-03-06T21:44:15.246Z,11
2023-03-06T21:49:14.736Z,12
2023-03-06T21:54:14.743Z,26
2023-03-06T21:59:14.752Z,17
2023-03-06T22:04:15.353Z,12
2023-03-06T22:09:14.771Z,11
2023-03-06T22:14:15.287Z,11
2023-03-06T22:19:14.783Z,11
2023-03-06T22:24:15.352Z,12
2023-03-06T22:29:14.795Z,11
2023-03-06T22:34:15.306Z,11
2023-03-06T22:39:14.818Z,12
2023-03-06T22:44:14.839Z,13
2023-03-06T22:49:15.338Z,10
2023-03-06T22:54:15.343Z,11
2023-03-06T22:59:14.868Z,11
2023-03-06T23:04:15.498Z,12
2023-03-06T23:09:14.874Z,11
2023-03-06T23:14:15.386Z,11
2023-03-06T23:19:14.886Z,9
2023-03-06T23:24:14.911Z,9
2023-03-06T23:29:14.930Z,9
2023-03-06T23:34:19.638Z,10
2023-03-06T23:39:14.916Z,12
2023-03-06T23:44:14.964Z,9
2023-03-06T23:49:14.974Z,9
2023-03-06T23:54:15.761Z,10
2023-03-06T23:59:14.953Z,10
